createdAt,value
2023-05-10T00:01:23.106Z,32.35
2023-05-10T00:03:52.439Z,33.83
2023-05-10T00:06:21.375Z,27.38
2023-05-10T00:08:52.318Z,26.83
2023-05-10T00:11:22.970Z,22.83
2023-05-10T00:13:52.359Z,20.55
2023-05-10T00:16:22.740Z,16.17
2023-05-10T00:18:51.842Z,15.68
2023-05-10T00:21:20.895Z,17.10
2023-05-10T00:23:49.970Z,16.00
2023-05-10T00:26:18.907Z,16.02
2023-05-10T00:31:24.372Z,16.35
2023-05-10T00:33:53.538Z,13.98
2023-05-10T00:36:23.050Z,14.88
2023-05-10T00:38:52.451Z,14.63
2023-05-10T00:41:22.210Z,14.27
2023-05-10T00:43:51.365Z,13.75
2023-05-10T00:46:20.827Z,13.00
2023-05-10T00:48:51.507Z,13.20
2023-05-10T00:51:20.833Z,13.52
2023-05-10T00:53:52.601Z,13.13
2023-05-10T00:56:24.214Z,12.25
2023-05-10T00:58:53.373Z,9.50
2023-05-10T01:01:22.660Z,8.20
2023-05-10T01:03:53.711Z,10.32
2023-05-10T01:06:22.863Z,7.90
2023-05-10T01:08:52.396Z,10.60
2023-05-10T01:11:21.988Z,11.65
2023-05-10T01:13:57.967Z,13.43
2023-05-10T01:16:29.013Z,12.27
2023-05-10T01:18:59.420Z,12.15
2023-05-10T01:21:35.219Z,12.60
2023-05-10T01:24:23.334Z,13.48
2023-05-10T01:27:36.606Z,12.05
2023-05-10T01:30:37.500Z,10.20
2023-05-10T01:33:18.348Z,8.05
2023-05-10T01:35:54.677Z,9.95
2023-05-10T01:38:32.587Z,12.82
2023-05-10T01:41:15.286Z,9.32
2023-05-10T01:43:54.695Z,7.88
2023-05-10T01:46:31.029Z,8.38
2023-05-10T01:49:05.167Z,7.25
2023-05-10T01:51:39.043Z,7.13
2023-05-10T01:54:09.849Z,7.82
2023-05-10T01:56:40.156Z,7.13
2023-05-10T01:59:15.648Z,8.13
2023-05-10T02:01:46.624Z,8.00
2023-05-10T02:04:19.627Z,9.05
2023-05-10T02:06:50.864Z,9.00
2023-05-10T02:09:23.492Z,7.32
2023-05-10T02:11:53.832Z,9.30
2023-05-10T02:14:25.541Z,11.32
2023-05-10T02:16:56.738Z,9.82
2023-05-10T02:19:28.388Z,10.48
2023-05-10T02:22:20.965Z,9.25
2023-05-10T02:24:51.517Z,8.75
2023-05-10T02:27:22.280Z,9.52
2023-05-10T02:29:52.719Z,8.13
2023-05-10T02:32:23.675Z,9.30
2023-05-10T02:34:55.290Z,8.70
2023-05-10T02:37:24.877Z,8.52
2023-05-10T02:39:57.544Z,8.93
2023-05-10T02:42:29.234Z,8.68
2023-05-10T02:45:04.274Z,10.02
2023-05-10T02:47:37.077Z,9.93
2023-05-10T02:50:09.266Z,10.40
2023-05-10T02:52:46.550Z,9.80
2023-05-10T02:55:18.525Z,9.20
2023-05-10T02:57:53.520Z,8.60
2023-05-10T03:00:22.770Z,9.60
2023-05-10T03:02:51.756Z,8.77
2023-05-10T03:05:22.532Z,9.38
2023-05-10T03:07:52.155Z,11.60
2023-05-10T03:10:22.396Z,10.77
2023-05-10T03:13:08.253Z,9.93
2023-05-10T03:15:44.700Z,11.55
2023-05-10T03:18:20.620Z,15.18
2023-05-10T03:20:53.326Z,11.77
2023-05-10T03:23:29.020Z,11.93
2023-05-10T03:25:58.784Z,12.02
2023-05-10T03:28:29.066Z,12.25
2023-05-10T03:30:59.028Z,11.50
2023-05-10T03:33:28.151Z,10.73
2023-05-10T03:35:58.501Z,11.68
2023-05-10T03:38:30.499Z,10.43
2023-05-10T03:41:00.010Z,10.25
2023-05-10T03:43:29.237Z,11.30
2023-05-10T03:45:58.267Z,10.05
2023-05-10T03:48:27.320Z,7.80
2023-05-10T03:50:56.358Z,7.93
2023-05-10T03:53:28.000Z,8.50
2023-05-10T03:55:57.232Z,9.52
2023-05-10T03:58:26.880Z,9.27
2023-05-10T04:00:56.433Z,10.32
2023-05-10T04:03:27.087Z,11.20
2023-05-10T04:06:02.073Z,9.48
2023-05-10T04:08:33.479Z,9.50
2023-05-10T04:11:09.723Z,10.15
2023-05-10T04:13:39.305Z,10.93
2023-05-10T04:16:08.617Z,11.35
2023-05-10T04:18:37.633Z,10.30
2023-05-10T04:21:06.596Z,11.95
2023-05-10T04:23:36.938Z,11.50
2023-05-10T04:26:06.096Z,11.40
2023-05-10T04:28:35.257Z,11.02
2023-05-10T04:31:05.127Z,10.07
2023-05-10T04:33:34.486Z,9.00
2023-05-10T04:36:04.298Z,8.20
2023-05-10T04:38:33.721Z,7.97
2023-05-10T04:41:11.121Z,8.43
2023-05-10T04:43:40.807Z,8.23
2023-05-10T04:46:10.016Z,6.55
2023-05-10T04:48:39.178Z,5.97
2023-05-10T04:51:08.307Z,7.30
2023-05-10T04:53:37.516Z,7.55
2023-05-10T04:56:08.006Z,6.28
2023-05-10T04:58:38.424Z,6.13
2023-05-10T05:01:09.216Z,5.30
2023-05-10T05:03:39.063Z,4.40
2023-05-10T05:06:08.612Z,4.05
2023-05-10T05:08:37.771Z,4.63
2023-05-10T05:11:06.955Z,4.40
2023-05-10T05:13:37.418Z,3.85
2023-05-10T05:16:07.579Z,4.43
2023-05-10T05:18:36.621Z,3.38
2023-05-10T05:21:05.730Z,3.25
2023-05-10T05:23:34.726Z,2.40
2023-05-10T05:26:03.708Z,2.38
2023-05-10T05:28:34.042Z,3.63
2023-05-10T05:31:04.538Z,3.22
2023-05-10T05:33:33.821Z,2.72
2023-05-10T05:36:03.780Z,3.08
2023-05-10T05:38:33.046Z,2.97
2023-05-10T05:41:02.534Z,2.67
2023-05-10T05:43:31.629Z,2.60
2023-05-10T05:46:00.678Z,2.42
2023-05-10T05:48:32.456Z,2.97
2023-05-10T05:51:01.513Z,2.78
2023-05-10T05:53:30.640Z,3.03
2023-05-10T05:56:00.904Z,2.60
2023-05-10T05:58:29.970Z,2.83
2023-05-10T06:00:59.004Z,3.38
2023-05-10T06:03:28.054Z,2.55
2023-05-10T06:05:58.770Z,3.05
2023-05-10T06:08:28.035Z,2.05
2023-05-10T06:10:57.363Z,2.22
2023-05-10T06:13:26.371Z,2.35
2023-05-10T06:15:55.500Z,2.15
2023-05-10T06:18:24.711Z,2.03
2023-05-10T06:20:53.952Z,2.50
2023-05-10T06:23:24.463Z,2.10
2023-05-10T06:25:54.173Z,2.30
2023-05-10T06:28:23.341Z,1.88
2023-05-10T06:30:52.632Z,1.60
2023-05-10T06:33:21.803Z,1.55
2023-05-10T06:35:50.844Z,2.20
2023-05-10T06:38:20.013Z,3.42
2023-05-10T06:40:50.615Z,1.50
2023-05-10T06:43:19.587Z,1.60
2023-05-10T06:45:49.907Z,2.10
2023-05-10T06:48:18.973Z,1.40
2023-05-10T06:50:49.176Z,1.60
2023-05-10T06:53:18.338Z,6.13
2023-05-10T06:55:47.596Z,2.42
2023-05-10T06:58:17.980Z,1.45
2023-05-10T07:00:48.168Z,1.80
2023-05-10T07:03:17.590Z,1.85
2023-05-10T07:05:46.703Z,1.70
2023-05-10T07:08:16.031Z,1.70
2023-05-10T07:10:45.046Z,1.40
2023-05-10T07:13:14.007Z,1.20
2023-05-10T07:15:44.638Z,1.90
2023-05-10T07:18:13.837Z,1.48
2023-05-10T07:20:42.951Z,0.88
2023-05-10T07:23:12.167Z,1.48
2023-05-10T07:25:41.347Z,1.30
2023-05-10T07:28:10.317Z,1.10
2023-05-10T07:30:39.351Z,1.10
2023-05-10T07:33:10.686Z,1.20
2023-05-10T07:35:39.809Z,1.27
2023-05-10T07:38:08.946Z,1.00
2023-05-10T07:40:38.314Z,1.00
2023-05-10T07:43:07.725Z,1.10
2023-05-10T07:45:37.104Z,1.20
2023-05-10T07:48:06.457Z,0.90
2023-05-10T07:50:37.051Z,0.90
2023-05-10T07:53:06.724Z,1.35
2023-05-10T07:55:35.908Z,1.17
2023-05-10T07:58:09.483Z,1.30
2023-05-10T08:00:40.592Z,2.13
2023-05-10T08:03:09.976Z,1.30
2023-05-10T08:05:42.098Z,1.40
2023-05-10T08:08:12.056Z,1.20
2023-05-10T08:10:41.480Z,3.35
2023-05-10T08:13:10.615Z,1.10
2023-05-10T08:15:39.937Z,1.10
2023-05-10T08:18:09.050Z,1.08
2023-05-10T08:20:38.218Z,1.13
2023-05-10T08:23:08.728Z,1.13
2023-05-10T08:25:38.342Z,1.50
2023-05-10T08:28:08.815Z,1.00
2023-05-10T08:30:39.072Z,1.05
2023-05-10T08:33:08.782Z,0.90
2023-05-10T08:35:37.931Z,1.25
2023-05-10T08:38:08.355Z,1.30
2023-05-10T08:40:39.890Z,1.00
2023-05-10T08:43:11.202Z,1.10
2023-05-10T08:45:42.561Z,1.13
2023-05-10T08:48:14.037Z,1.48
2023-05-10T08:50:44.644Z,1.33
2023-05-10T08:53:17.448Z,1.00
2023-05-10T08:55:46.558Z,1.75
2023-05-10T08:58:16.641Z,1.10
2023-05-10T09:00:46.080Z,1.42
2023-05-10T09:03:16.049Z,1.55
2023-05-10T09:05:45.858Z,1.30
2023-05-10T09:08:17.578Z,1.15
2023-05-10T09:10:48.627Z,1.35
2023-05-10T09:13:19.290Z,1.60
2023-05-10T09:15:49.446Z,1.02
2023-05-10T09:18:18.611Z,1.25
2023-05-10T09:20:47.854Z,3.78
2023-05-10T09:23:18.675Z,1.40
2023-05-10T09:25:49.175Z,0.90
2023-05-10T09:28:18.180Z,0.93
2023-05-10T09:30:56.727Z,1.17
2023-05-10T09:33:27.691Z,1.13
2023-05-10T09:35:57.426Z,1.05
2023-05-10T09:38:27.822Z,1.23
2023-05-10T09:40:57.949Z,1.00
2023-05-10T09:43:28.543Z,0.90
2023-05-10T09:45:57.958Z,1.00
2023-05-10T09:48:27.459Z,1.20
2023-05-10T09:50:59.618Z,1.10
2023-05-10T09:53:30.310Z,0.95
2023-05-10T09:55:59.679Z,1.48
2023-05-10T09:58:29.199Z,1.02
2023-05-10T10:00:58.753Z,0.90
2023-05-10T10:03:30.303Z,1.20
2023-05-10T10:06:00.120Z,1.20
2023-05-10T10:08:31.221Z,1.30
2023-05-10T10:11:00.822Z,1.25
2023-05-10T10:13:34.409Z,1.40
2023-05-10T10:16:06.610Z,2.40
2023-05-10T10:18:39.999Z,1.77
2023-05-10T10:21:10.830Z,2.53
2023-05-10T10:29:04.077Z,1.52
2023-05-10T10:31:40.415Z,1.30
2023-05-10T10:34:12.253Z,1.40
2023-05-10T10:36:47.798Z,1.10
2023-05-10T10:39:17.924Z,1.60
2023-05-10T10:41:53.202Z,2.92
2023-05-10T10:44:28.884Z,2.35
2023-05-10T10:47:24.306Z,1.50
2023-05-10T10:50:05.622Z,1.60
2023-05-10T10:52:36.972Z,1.25
2023-05-10T10:55:09.448Z,1.35
2023-05-10T10:57:49.649Z,3.83
2023-05-10T11:00:32.340Z,1.13
2023-05-10T11:03:05.510Z,1.27
2023-05-10T11:05:41.384Z,1.65
2023-05-10T11:08:17.409Z,1.20
2023-05-10T11:10:55.568Z,1.20
2023-05-10T11:13:32.466Z,1.35
2023-05-10T11:16:14.379Z,1.30
2023-05-10T11:18:54.280Z,1.00
2023-05-10T11:21:24.071Z,1.30
2023-05-10T11:23:58.509Z,1.48
2023-05-10T11:26:32.679Z,1.40
2023-05-10T11:29:03.031Z,1.40
2023-05-10T11:31:34.268Z,1.00
2023-05-10T11:34:04.038Z,1.30
2023-05-10T11:36:37.052Z,1.35
2023-05-10T11:39:07.772Z,1.52
2023-05-10T11:41:37.117Z,1.10
2023-05-10T11:44:06.582Z,1.10
2023-05-10T11:46:38.811Z,1.17
2023-05-10T11:49:10.121Z,1.58
2023-05-10T11:51:40.512Z,1.30
2023-05-10T11:54:11.863Z,1.20
2023-05-10T11:56:42.254Z,1.30
2023-05-10T11:59:11.588Z,1.30
2023-05-10T12:01:42.504Z,1.20
2023-05-10T12:04:11.914Z,1.40
2023-05-10T12:06:43.279Z,1.30
2023-05-10T12:09:12.534Z,1.27
2023-05-10T12:11:44.348Z,1.33
2023-05-10T12:14:14.081Z,1.42
2023-05-10T12:16:46.195Z,1.13
2023-05-10T12:19:21.785Z,1.40
2023-05-10T12:21:51.519Z,1.30
2023-05-10T12:24:22.659Z,1.48
2023-05-10T12:29:42.693Z,1.30
2023-05-10T12:32:13.611Z,1.10
2023-05-10T12:34:42.776Z,1.10
2023-05-10T12:37:11.816Z,2.85
2023-05-10T12:39:42.559Z,1.40
2023-05-10T12:42:12.725Z,1.27
2023-05-10T12:44:42.331Z,1.45
2023-05-10T12:47:20.419Z,2.00
2023-05-10T12:49:49.509Z,1.90
2023-05-10T12:52:18.605Z,1.23
2023-05-10T12:54:48.457Z,1.45
2023-05-10T12:57:17.509Z,1.40
2023-05-10T12:59:46.667Z,1.13
2023-05-10T13:02:19.171Z,1.10
2023-05-10T13:04:50.803Z,1.20
2023-05-10T13:07:20.688Z,1.42
2023-05-10T13:09:50.625Z,1.30
2023-05-10T13:12:19.787Z,1.08
2023-05-10T13:14:48.893Z,1.40
2023-05-10T13:17:19.427Z,1.48
2023-05-10T13:19:48.496Z,1.40
2023-05-10T13:22:25.629Z,1.40
2023-05-10T13:25:02.172Z,1.80
2023-05-10T13:27:32.987Z,1.30
2023-05-10T13:30:02.045Z,1.48
2023-05-10T13:32:37.262Z,1.20
2023-05-10T13:35:08.734Z,1.48
2023-05-10T13:37:38.351Z,1.20
2023-05-10T13:40:08.961Z,1.40
2023-05-10T13:42:38.610Z,1.20
2023-05-10T13:45:08.757Z,1.20
2023-05-10T13:47:39.290Z,2.75
2023-05-10T13:50:09.280Z,1.33
2023-05-10T13:52:38.586Z,1.40
2023-05-10T13:55:08.014Z,1.30
2023-05-10T13:57:38.053Z,1.60
2023-05-10T14:00:08.928Z,1.40
2023-05-10T14:02:40.122Z,1.48
2023-05-10T14:05:09.772Z,1.65
2023-05-10T14:07:39.148Z,1.20
2023-05-10T14:10:09.217Z,1.02
2023-05-10T14:12:38.432Z,1.58
2023-05-10T14:15:08.451Z,1.10
2023-05-10T14:17:37.526Z,1.42
2023-05-10T14:20:09.591Z,1.73
2023-05-10T14:22:38.787Z,1.33
2023-05-10T14:25:08.332Z,1.42
2023-05-10T14:27:37.763Z,1.42
2023-05-10T14:30:08.008Z,1.17
2023-05-10T14:32:37.767Z,1.27
2023-05-10T14:35:12.133Z,1.15
2023-05-10T14:37:42.163Z,1.10
2023-05-10T14:40:12.136Z,1.35
2023-05-10T14:42:41.465Z,1.58
2023-05-10T14:45:12.181Z,1.25
2023-05-10T14:47:41.275Z,1.20
2023-05-10T14:50:21.497Z,1.30
2023-05-10T14:53:01.352Z,1.30
2023-05-10T14:55:30.459Z,1.20
2023-05-10T14:57:59.813Z,1.25
2023-05-10T15:00:31.680Z,1.25
2023-05-10T15:03:01.488Z,1.38
2023-05-10T15:05:32.637Z,1.20
2023-05-10T15:08:02.029Z,1.20
2023-05-10T15:10:33.110Z,1.10
2023-05-10T15:13:03.793Z,1.20
2023-05-10T15:15:33.147Z,1.25
2023-05-10T15:18:02.224Z,1.10
2023-05-10T15:20:32.801Z,1.05
2023-05-10T15:23:01.885Z,1.17
2023-05-10T15:25:31.018Z,1.33
2023-05-10T15:28:00.149Z,1.00
2023-05-10T15:30:29.941Z,1.10
2023-05-10T15:32:59.287Z,1.15
2023-05-10T15:35:29.409Z,1.30
2023-05-10T15:38:00.829Z,1.15
2023-05-10T15:40:30.335Z,1.20
2023-05-10T15:42:59.598Z,0.98
2023-05-10T15:45:29.035Z,2.00
2023-05-10T15:47:58.279Z,1.30
2023-05-10T15:50:27.952Z,0.93
2023-05-10T15:52:57.617Z,1.27
2023-05-10T15:55:28.871Z,1.45
2023-05-10T15:57:58.090Z,1.40
2023-05-10T16:00:28.583Z,1.50
2023-05-10T16:02:58.039Z,1.60
2023-05-10T16:05:30.051Z,1.40
2023-05-10T16:07:59.291Z,1.45
2023-05-10T16:10:33.325Z,1.70
2023-05-10T16:13:03.563Z,1.40
2023-05-10T16:15:32.768Z,1.20
2023-05-10T16:18:02.862Z,1.63
2023-05-10T16:20:32.276Z,1.50
2023-05-10T16:23:04.951Z,1.27
2023-05-10T16:25:35.879Z,1.45
2023-05-10T16:28:05.233Z,2.33
2023-05-10T16:30:34.464Z,1.85
2023-05-10T16:33:04.644Z,1.75
2023-05-10T16:35:33.801Z,1.50
2023-05-10T16:38:03.617Z,1.58
2023-05-10T16:40:32.953Z,1.52
2023-05-10T16:43:03.809Z,1.67
2023-05-10T16:45:33.415Z,1.33
2023-05-10T16:48:02.520Z,1.92
2023-05-10T16:50:32.584Z,1.70
2023-05-10T16:53:02.292Z,1.42
2023-05-10T16:55:31.533Z,1.60
2023-05-10T16:58:01.149Z,1.55
2023-05-10T17:00:31.797Z,2.15
2023-05-10T17:03:01.412Z,1.50
2023-05-10T17:05:33.735Z,1.90
2023-05-10T17:08:02.947Z,1.70
2023-05-10T17:10:32.716Z,1.70
2023-05-10T17:13:02.071Z,1.83
2023-05-10T17:15:32.511Z,2.60
2023-05-10T17:18:01.863Z,1.75
2023-05-10T17:20:31.168Z,2.28
2023-05-10T17:23:00.793Z,2.15
2023-05-10T17:25:30.366Z,1.80
2023-05-10T17:28:00.166Z,1.70
2023-05-10T17:30:33.305Z,1.58
2023-05-10T17:33:03.867Z,2.05
2023-05-10T17:35:34.340Z,2.25
2023-05-10T17:38:03.528Z,2.28
2023-05-10T17:40:32.555Z,2.10
2023-05-10T17:43:01.617Z,1.95
2023-05-10T17:45:30.940Z,1.67
2023-05-10T17:48:00.059Z,2.33
2023-05-10T17:50:31.977Z,1.92
2023-05-10T17:53:19.592Z,2.70
2023-05-10T17:55:48.700Z,2.03
2023-05-10T17:58:18.915Z,2.25
2023-05-10T18:00:48.091Z,2.67
2023-05-10T18:03:17.226Z,2.83
2023-05-10T18:05:49.066Z,3.10
2023-05-10T18:08:22.948Z,2.25
2023-05-10T18:10:52.152Z,2.13
2023-05-10T18:13:21.650Z,3.35
2023-05-10T18:15:50.798Z,4.15
2023-05-10T18:18:20.087Z,3.45
2023-05-10T18:20:56.531Z,3.50
2023-05-10T18:23:26.670Z,2.72
2023-05-10T18:25:56.100Z,2.80
2023-05-10T18:28:25.856Z,2.97
2023-05-10T18:30:55.025Z,3.50
2023-05-10T18:33:24.166Z,4.75
2023-05-10T18:35:54.597Z,3.63
2023-05-10T18:38:23.781Z,3.85
2023-05-10T18:40:53.870Z,3.97
2023-05-10T18:43:22.954Z,3.33
2023-05-10T18:45:52.796Z,3.42
2023-05-10T18:48:22.922Z,3.15
2023-05-10T18:50:52.278Z,3.45
2023-05-10T18:53:23.012Z,4.07
2023-05-10T18:55:58.596Z,2.80
2023-05-10T18:58:29.050Z,2.75
2023-05-10T19:00:58.825Z,3.45
2023-05-10T19:03:28.051Z,2.97
2023-05-10T19:05:57.167Z,2.95
2023-05-10T19:08:27.598Z,2.78
2023-05-10T19:10:56.808Z,2.30
2023-05-10T19:13:27.845Z,2.63
2023-05-10T19:16:07.392Z,2.88
2023-05-10T19:18:38.337Z,3.20
2023-05-10T19:21:10.431Z,3.97
2023-05-10T19:23:42.134Z,3.78
2023-05-10T19:26:12.756Z,2.85
2023-05-10T19:28:42.907Z,3.70
2023-05-10T19:31:12.811Z,3.35
2023-05-10T19:33:42.106Z,3.83
2023-05-10T19:36:11.433Z,3.30
2023-05-10T19:38:42.069Z,3.90
2023-05-10T19:41:11.613Z,3.67
2023-05-10T19:43:41.899Z,4.05
2023-05-10T19:46:11.155Z,4.50
2023-05-10T19:48:40.444Z,4.20
2023-05-10T19:51:10.263Z,4.55
2023-05-10T19:53:44.273Z,4.20
2023-05-10T19:56:14.457Z,4.00
2023-05-10T19:58:43.684Z,4.60
2023-05-10T20:01:13.046Z,4.40
2023-05-10T20:03:42.322Z,3.85
2023-05-10T20:06:12.098Z,3.85
2023-05-10T20:08:43.010Z,4.25
2023-05-10T20:11:12.241Z,4.32
2023-05-10T20:13:41.274Z,3.90
2023-05-10T20:16:10.343Z,3.90
2023-05-10T20:18:42.026Z,3.92
2023-05-10T20:21:11.416Z,3.95
2023-05-10T20:23:40.686Z,5.45
2023-05-10T20:26:11.285Z,4.72
2023-05-10T20:28:40.839Z,4.47
2023-05-10T20:31:10.394Z,4.70
2023-05-10T20:33:39.489Z,5.10
2023-05-10T20:36:09.722Z,5.10
2023-05-10T20:38:38.926Z,3.75
2023-05-10T20:41:08.124Z,4.63
2023-05-10T20:43:38.627Z,4.18
2023-05-10T20:46:07.942Z,5.18
2023-05-10T20:48:37.026Z,5.15
2023-05-10T20:51:06.161Z,5.03
2023-05-10T20:53:35.167Z,5.63
2023-05-10T20:56:04.177Z,4.90
2023-05-10T20:58:33.458Z,5.47
2023-05-10T21:01:04.237Z,5.97
2023-05-10T21:03:33.228Z,5.55
2023-05-10T21:06:02.389Z,5.68
2023-05-10T21:08:31.466Z,5.93
2023-05-10T21:11:04.864Z,6.20
2023-05-10T21:13:34.422Z,5.70
2023-05-10T21:16:05.716Z,5.70
2023-05-10T21:18:34.753Z,6.05
2023-05-10T21:21:03.964Z,5.93
2023-05-10T21:23:34.419Z,5.80
2023-05-10T21:26:04.362Z,5.97
2023-05-10T21:28:33.410Z,5.78
2023-05-10T21:31:02.571Z,5.30
2023-05-10T21:33:32.958Z,5.22
2023-05-10T21:36:02.200Z,5.55
2023-05-10T21:38:31.767Z,5.20
2023-05-10T21:41:00.772Z,5.78
2023-05-10T21:43:30.027Z,5.45
2023-05-10T21:45:59.075Z,5.43
2023-05-10T21:48:28.302Z,5.05
2023-05-10T21:50:58.873Z,4.68
2023-05-10T21:53:28.468Z,4.80
2023-05-10T21:55:57.617Z,5.00
2023-05-10T21:58:26.566Z,5.53
2023-05-10T22:00:56.308Z,4.93
2023-05-10T22:03:25.674Z,4.88
2023-05-10T22:05:54.948Z,5.28
2023-05-10T22:08:25.778Z,4.47
2023-05-10T22:10:54.774Z,4.85
2023-05-10T22:13:23.775Z,4.85
2023-05-10T22:15:52.906Z,4.72
2023-05-10T22:18:22.042Z,5.03
2023-05-10T22:20:51.096Z,4.72
2023-05-10T22:23:20.221Z,7.18
2023-05-10T22:25:50.630Z,15.43
2023-05-10T22:28:19.606Z,13.15
2023-05-10T22:30:49.723Z,11.40
2023-05-10T22:33:18.858Z,8.50
2023-05-10T22:35:47.932Z,6.68
2023-05-10T22:38:17.004Z,5.15
2023-05-10T22:40:46.031Z,5.72
2023-05-10T22:43:18.373Z,4.93
2023-05-10T22:45:47.494Z,4.82
2023-05-10T22:48:16.992Z,4.30
2023-05-10T22:50:45.945Z,4.50
2023-05-10T22:53:14.896Z,4.40
2023-05-10T22:55:43.928Z,3.97
2023-05-10T22:58:12.922Z,4.70
2023-05-10T23:00:43.342Z,5.38
2023-05-10T23:03:12.341Z,4.50
2023-05-10T23:05:41.363Z,5.28
2023-05-10T23:08:10.387Z,4.47
2023-05-10T23:10:39.357Z,5.20
2023-05-10T23:13:08.355Z,4.75
2023-05-10T23:15:37.470Z,4.60
2023-05-10T23:18:09.838Z,5.32
2023-05-10T23:20:38.910Z,3.78
2023-05-10T23:23:07.867Z,4.40
2023-05-10T23:25:37.174Z,4.63
2023-05-10T23:28:07.092Z,3.92
2023-05-10T23:30:36.186Z,4.32
2023-05-10T23:33:05.269Z,4.57
2023-05-10T23:35:35.766Z,4.50
2023-05-10T23:38:04.903Z,4.47
2023-05-10T23:40:33.828Z,4.72
2023-05-10T23:43:02.756Z,4.75
2023-05-10T23:45:32.088Z,4.35
2023-05-10T23:48:01.206Z,4.10
2023-05-10T23:50:30.187Z,5.10
2023-05-10T23:53:00.692Z,4.50
2023-05-10T23:55:29.672Z,4.72
2023-05-10T23:57:58.694Z,4.22
